CheckWX is a tool to help pilots better visualize weather data.  It is not intended as a substitute for an official pre-flight weather briefing.

02:14:34 UTC

KGJT METAR
Grand Junction Regional Airport
Grand Junction, Colorado, USA
Current

22 mins ago

KGJT 280153Z 34009KT 10SM CLR 25/05 A3004 RMK AO2 SLP110 T02500050
Observed
May-28 @ 01:53 UTC
Wind
  • 340° at 9 KTS
Visibility
Flight Rules
VFR
Cloud Levels
  • Clear skies
Temperature
25°C / 77°F
Dewpoint
C / 41°F
Humidity
28%
Altimeter
30.04" Hg
Pressure
1017.32 hPa
Previous

1 hour ago

KGJT 280053Z 33012KT 10SM CLR 25/06 A3004 RMK AO2 PK WND 31043/2356 SLP111 T02500056
Observed
May-28 @ 00:53 UTC
Wind
  • 330° at 12 KTS
Visibility
Flight Rules
VFR
Cloud Levels
  • Clear skies
Temperature
25°C / 77°F
Dewpoint
C / 43°F
Humidity
30%
Altimeter
30.04" Hg
Pressure
1017.32 hPa
Previous

2 hours ago

KGJT 280002Z 31027G43KT 4SM HZ FEW005 BKN110 26/06 A3004 RMK AO2 PK WND 31043/2356 PRESRR T02560056
Observed
May-28 @ 00:02 UTC
Wind
  • 310° at 27 KTS
  • Gusting to 43 KTS
Visibility
Flight Rules
MVFR
Conditions
Haze
Cloud Levels
  • Few at 500' AGL
  • Broken at 11,000' AGL
Temperature
26°C / 79°F
Dewpoint
C / 43°F
Humidity
28%
Altimeter
30.04" Hg
Pressure
1017.32 hPa